Arnold Palmer Regional Airport Latrobe US
ICAO: KLBE
IATA: LBE
Category: Medium
Scheduled Services: Yes

Elevation: 1199 ft
TransAlt. 18000 ft.

Airport Communications:
ATIS:118.375
AWOS 3:118.375
CLEVELAND CNTR:124.4
CTAF:125
GND:121.8
TWR:125

KLBE Zoom In..

Runways:

(A) RW 03 length 3609 ft width 75 ft
---- / hdg 29

(B) RW 05 length 8222 ft width 100 ft
---- / hdg 55

(C) RW 21 length 3609 ft width 75 ft
---- / hdg 209

(D) RW 23 length 8222 ft width 100 ft
ILS 110.90 / hdg 235

Location; KLBE
Day. 20 / Time. 02.55 Zulu
* Altimeter: 30.06
* Temperature: 23° c. 73.4°f.
* Wind from: 120° Speed 07 kn.
Dewpoint: 15° c.
Visibility: 10 Statute Miles.
Clouds: Clear (automated report).

KLBE 200255Z AUTO 12007KT 10SM CLR 23/15 A3006 RMK AO2


Wind From 120°
Speed 07 kn.

 
 
jpsmedia.com for Web Design worldairports.se 2018   terms of use